sensor_id;sensor_type;location;lat;lon;timestamp;P1;durP1;ratioP1;P2;durP2;ratioP2
20671;SDS011;10495;50.922;4.760;2023-04-05T00:00:29;6.90;;;4.93;;
20671;SDS011;10495;50.922;4.760;2023-04-05T00:02:56;6.70;;;5.00;;
20671;SDS011;10495;50.922;4.760;2023-04-05T00:05:24;7.53;;;5.83;;
20671;SDS011;10495;50.922;4.760;2023-04-05T00:07:56;6.10;;;4.83;;
20671;SDS011;10495;50.922;4.760;2023-04-05T00:10:23;7.60;;;5.47;;
20671;SDS011;10495;50.922;4.760;2023-04-05T00:12:48;8.77;;;5.57;;
20671;SDS011;10495;50.922;4.760;2023-04-05T00:15:15;8.47;;;5.47;;
20671;SDS011;10495;50.922;4.760;2023-04-05T00:17:40;7.43;;;5.50;;
20671;SDS011;10495;50.922;4.760;2023-04-05T00:20:07;8.20;;;5.77;;
20671;SDS011;10495;50.922;4.760;2023-04-05T00:22:36;8.93;;;6.17;;
20671;SDS011;10495;50.922;4.760;2023-04-05T00:25:03;10.33;;;6.80;;
20671;SDS011;10495;50.922;4.760;2023-04-05T00:27:29;8.53;;;6.07;;
20671;SDS011;10495;50.922;4.760;2023-04-05T00:29:55;10.10;;;5.97;;
20671;SDS011;10495;50.922;4.760;2023-04-05T00:32:20;7.73;;;5.77;;
20671;SDS011;10495;50.922;4.760;2023-04-05T00:34:46;9.03;;;6.20;;
20671;SDS011;10495;50.922;4.760;2023-04-05T00:37:12;11.73;;;6.37;;
20671;SDS011;10495;50.922;4.760;2023-04-05T00:39:38;9.90;;;7.03;;
20671;SDS011;10495;50.922;4.760;2023-04-05T00:42:04;9.60;;;6.40;;
20671;SDS011;10495;50.922;4.760;2023-04-05T00:44:30;7.77;;;5.90;;
20671;SDS011;10495;50.922;4.760;2023-04-05T00:46:59;9.27;;;5.93;;
20671;SDS011;10495;50.922;4.760;2023-04-05T00:49:26;8.97;;;6.10;;
20671;SDS011;10495;50.922;4.760;2023-04-05T00:51:52;8.43;;;5.67;;
20671;SDS011;10495;50.922;4.760;2023-04-05T00:54:19;8.93;;;5.93;;
20671;SDS011;10495;50.922;4.760;2023-04-05T00:56:44;10.33;;;6.53;;
20671;SDS011;10495;50.922;4.760;2023-04-05T00:59:10;8.43;;;5.93;;
20671;SDS011;10495;50.922;4.760;2023-04-05T01:01:36;7.83;;;5.97;;
20671;SDS011;10495;50.922;4.760;2023-04-05T01:04:04;8.43;;;5.87;;
20671;SDS011;10495;50.922;4.760;2023-04-05T01:09:28;9.27;;;6.17;;
20671;SDS011;10495;50.922;4.760;2023-04-05T01:12:04;8.77;;;6.20;;
20671;SDS011;10495;50.922;4.760;2023-04-05T01:14:41;9.43;;;6.50;;
20671;SDS011;10495;50.922;4.760;2023-04-05T01:17:17;7.60;;;5.63;;
20671;SDS011;10495;50.922;4.760;2023-04-05T01:19:50;8.87;;;6.07;;
20671;SDS011;10495;50.922;4.760;2023-04-05T01:30:23;10.00;;;6.70;;
20671;SDS011;10495;50.922;4.760;2023-04-05T01:38:56;9.27;;;6.60;;
20671;SDS011;10495;50.922;4.760;2023-04-05T01:41:24;9.53;;;6.47;;
20671;SDS011;10495;50.922;4.760;2023-04-05T01:43:51;10.20;;;6.57;;
20671;SDS011;10495;50.922;4.760;2023-04-05T01:46:16;7.80;;;6.30;;
20671;SDS011;10495;50.922;4.760;2023-04-05T01:48:42;9.23;;;6.93;;
20671;SDS011;10495;50.922;4.760;2023-04-05T01:51:08;9.27;;;6.50;;
20671;SDS011;10495;50.922;4.760;2023-04-05T01:53:34;10.87;;;7.07;;
20671;SDS011;10495;50.922;4.760;2023-04-05T01:56:00;8.57;;;6.27;;
20671;SDS011;10495;50.922;4.760;2023-04-05T01:58:26;11.90;;;6.73;;
20671;SDS011;10495;50.922;4.760;2023-04-05T02:00:53;9.63;;;6.80;;
20671;SDS011;10495;50.922;4.760;2023-04-05T02:03:19;9.10;;;6.47;;
20671;SDS011;10495;50.922;4.760;2023-04-05T02:05:46;9.00;;;6.23;;
20671;SDS011;10495;50.922;4.760;2023-04-05T02:08:11;7.53;;;6.00;;
20671;SDS011;10495;50.922;4.760;2023-04-05T02:10:38;9.57;;;6.90;;
20671;SDS011;10495;50.922;4.760;2023-04-05T02:13:04;8.73;;;6.40;;
20671;SDS011;10495;50.922;4.760;2023-04-05T02:15:30;10.00;;;7.27;;
20671;SDS011;10495;50.922;4.760;2023-04-05T02:17:57;11.00;;;7.23;;
20671;SDS011;10495;50.922;4.760;2023-04-05T02:20:26;13.03;;;7.27;;
20671;SDS011;10495;50.922;4.760;2023-04-05T02:22:52;10.10;;;7.17;;
20671;SDS011;10495;50.922;4.760;2023-04-05T02:25:18;9.67;;;7.13;;
20671;SDS011;10495;50.922;4.760;2023-04-05T02:27:44;11.47;;;7.17;;
20671;SDS011;10495;50.922;4.760;2023-04-05T02:30:10;11.93;;;7.43;;
20671;SDS011;10495;50.922;4.760;2023-04-05T02:32:38;11.80;;;7.47;;
20671;SDS011;10495;50.922;4.760;2023-04-05T02:35:06;13.97;;;7.37;;
20671;SDS011;10495;50.922;4.760;2023-04-05T02:37:33;9.17;;;6.80;;
20671;SDS011;10495;50.922;4.760;2023-04-05T02:39:59;9.87;;;7.07;;
20671;SDS011;10495;50.922;4.760;2023-04-05T02:42:25;14.83;;;7.93;;
20671;SDS011;10495;50.922;4.760;2023-04-05T02:44:51;15.93;;;8.93;;
20671;SDS011;10495;50.922;4.760;2023-04-05T02:47:17;17.20;;;8.90;;
20671;SDS011;10495;50.922;4.760;2023-04-05T02:49:48;13.77;;;8.70;;
20671;SDS011;10495;50.922;4.760;2023-04-05T02:52:14;16.13;;;8.80;;
20671;SDS011;10495;50.922;4.760;2023-04-05T02:54:40;12.80;;;8.30;;
20671;SDS011;10495;50.922;4.760;2023-04-05T02:57:05;11.83;;;8.13;;
20671;SDS011;10495;50.922;4.760;2023-04-05T02:59:34;13.83;;;9.07;;
20671;SDS011;10495;50.922;4.760;2023-04-05T03:02:00;15.17;;;9.03;;
20671;SDS011;10495;50.922;4.760;2023-04-05T03:04:26;15.17;;;9.13;;
20671;SDS011;10495;50.922;4.760;2023-04-05T03:06:52;15.30;;;8.97;;
20671;SDS011;10495;50.922;4.760;2023-04-05T03:09:19;14.27;;;9.03;;
20671;SDS011;10495;50.922;4.760;2023-04-05T03:11:46;16.63;;;9.97;;
20671;SDS011;10495;50.922;4.760;2023-04-05T03:14:11;15.37;;;8.93;;
20671;SDS011;10495;50.922;4.760;2023-04-05T03:16:37;19.53;;;9.87;;
20671;SDS011;10495;50.922;4.760;2023-04-05T03:19:03;15.43;;;9.20;;
20671;SDS011;10495;50.922;4.760;2023-04-05T03:21:30;16.43;;;8.93;;
20671;SDS011;10495;50.922;4.760;2023-04-05T03:23:56;17.83;;;9.20;;
20671;SDS011;10495;50.922;4.760;2023-04-05T03:26:22;16.63;;;9.63;;
20671;SDS011;10495;50.922;4.760;2023-04-05T03:28:48;15.27;;;8.70;;
20671;SDS011;10495;50.922;4.760;2023-04-05T03:31:14;14.70;;;8.60;;
20671;SDS011;10495;50.922;4.760;2023-04-05T03:33:39;12.63;;;8.37;;
20671;SDS011;10495;50.922;4.760;2023-04-05T03:36:05;13.50;;;7.73;;
20671;SDS011;10495;50.922;4.760;2023-04-05T03:38:31;12.47;;;8.20;;
20671;SDS011;10495;50.922;4.760;2023-04-05T03:40:56;14.00;;;8.50;;
20671;SDS011;10495;50.922;4.760;2023-04-05T03:43:22;13.90;;;8.63;;
20671;SDS011;10495;50.922;4.760;2023-04-05T03:45:48;14.83;;;8.60;;
20671;SDS011;10495;50.922;4.760;2023-04-05T03:48:14;14.17;;;8.43;;
20671;SDS011;10495;50.922;4.760;2023-04-05T03:50:44;13.03;;;8.90;;
20671;SDS011;10495;50.922;4.760;2023-04-05T03:53:10;14.47;;;8.13;;
20671;SDS011;10495;50.922;4.760;2023-04-05T03:55:35;11.53;;;7.60;;
20671;SDS011;10495;50.922;4.760;2023-04-05T03:58:01;12.63;;;8.23;;
20671;SDS011;10495;50.922;4.760;2023-04-05T04:00:27;13.60;;;8.33;;
20671;SDS011;10495;50.922;4.760;2023-04-05T04:02:53;11.60;;;7.70;;
20671;SDS011;10495;50.922;4.760;2023-04-05T04:05:19;14.13;;;7.53;;
20671;SDS011;10495;50.922;4.760;2023-04-05T04:07:45;13.63;;;8.30;;
20671;SDS011;10495;50.922;4.760;2023-04-05T04:10:12;12.83;;;8.03;;
20671;SDS011;10495;50.922;4.760;2023-04-05T04:12:39;11.90;;;7.57;;
20671;SDS011;10495;50.922;4.760;2023-04-05T04:15:05;12.00;;;7.17;;
20671;SDS011;10495;50.922;4.760;2023-04-05T04:17:31;9.53;;;6.63;;
20671;SDS011;10495;50.922;4.760;2023-04-05T04:19:58;13.07;;;7.33;;
20671;SDS011;10495;50.922;4.760;2023-04-05T04:22:25;12.30;;;8.27;;
20671;SDS011;10495;50.922;4.760;2023-04-05T04:25:00;11.97;;;7.43;;
20671;SDS011;10495;50.922;4.760;2023-04-05T04:27:29;10.17;;;7.40;;
20671;SDS011;10495;50.922;4.760;2023-04-05T04:29:55;12.73;;;8.17;;
20671;SDS011;10495;50.922;4.760;2023-04-05T04:32:26;15.27;;;8.73;;
20671;SDS011;10495;50.922;4.760;2023-04-05T04:35:12;14.87;;;8.47;;
20671;SDS011;10495;50.922;4.760;2023-04-05T04:37:50;13.27;;;8.63;;
20671;SDS011;10495;50.922;4.760;2023-04-05T04:40:19;12.53;;;8.00;;
20671;SDS011;10495;50.922;4.760;2023-04-05T04:42:45;14.17;;;8.87;;
20671;SDS011;10495;50.922;4.760;2023-04-05T04:45:14;12.03;;;7.30;;
20671;SDS011;10495;50.922;4.760;2023-04-05T04:47:42;12.50;;;8.77;;
20671;SDS011;10495;50.922;4.760;2023-04-05T04:50:11;12.43;;;7.33;;
20671;SDS011;10495;50.922;4.760;2023-04-05T04:52:38;15.00;;;7.53;;
20671;SDS011;10495;50.922;4.760;2023-04-05T04:55:07;12.33;;;7.50;;
20671;SDS011;10495;50.922;4.760;2023-04-05T04:57:34;13.53;;;8.03;;
20671;SDS011;10495;50.922;4.760;2023-04-05T05:00:00;10.73;;;7.57;;
20671;SDS011;10495;50.922;4.760;2023-04-05T05:02:26;12.33;;;7.27;;
20671;SDS011;10495;50.922;4.760;2023-04-05T05:04:52;10.50;;;7.20;;
20671;SDS011;10495;50.922;4.760;2023-04-05T05:07:18;10.40;;;7.53;;
20671;SDS011;10495;50.922;4.760;2023-04-05T05:09:44;11.97;;;7.60;;
20671;SDS011;10495;50.922;4.760;2023-04-05T05:12:10;11.53;;;7.83;;
20671;SDS011;10495;50.922;4.760;2023-04-05T05:14:35;10.17;;;7.50;;
20671;SDS011;10495;50.922;4.760;2023-04-05T05:17:01;14.53;;;8.07;;
20671;SDS011;10495;50.922;4.760;2023-04-05T05:19:29;10.67;;;7.90;;
20671;SDS011;10495;50.922;4.760;2023-04-05T05:21:55;10.50;;;7.40;;
20671;SDS011;10495;50.922;4.760;2023-04-05T05:24:21;14.40;;;8.07;;
20671;SDS011;10495;50.922;4.760;2023-04-05T05:26:47;12.43;;;8.03;;
20671;SDS011;10495;50.922;4.760;2023-04-05T05:29:12;12.03;;;6.97;;
20671;SDS011;10495;50.922;4.760;2023-04-05T05:31:38;9.13;;;6.80;;
20671;SDS011;10495;50.922;4.760;2023-04-05T05:34:04;12.07;;;8.00;;
20671;SDS011;10495;50.922;4.760;2023-04-05T05:36:30;12.93;;;7.67;;
20671;SDS011;10495;50.922;4.760;2023-04-05T05:38:57;13.23;;;8.17;;
20671;SDS011;10495;50.922;4.760;2023-04-05T05:41:23;14.57;;;8.03;;
20671;SDS011;10495;50.922;4.760;2023-04-05T05:43:48;11.77;;;8.43;;
20671;SDS011;10495;50.922;4.760;2023-04-05T05:46:14;13.13;;;7.63;;
20671;SDS011;10495;50.922;4.760;2023-04-05T05:48:40;12.90;;;7.83;;
20671;SDS011;10495;50.922;4.760;2023-04-05T05:51:05;13.47;;;8.17;;
20671;SDS011;10495;50.922;4.760;2023-04-05T05:53:38;10.50;;;7.47;;
20671;SDS011;10495;50.922;4.760;2023-04-05T05:56:04;12.13;;;8.57;;
20671;SDS011;10495;50.922;4.760;2023-04-05T05:58:30;12.40;;;7.97;;
20671;SDS011;10495;50.922;4.760;2023-04-05T06:00:56;12.20;;;8.67;;
20671;SDS011;10495;50.922;4.760;2023-04-05T06:03:23;18.03;;;10.57;;
20671;SDS011;10495;50.922;4.760;2023-04-05T06:05:54;16.10;;;10.10;;
20671;SDS011;10495;50.922;4.760;2023-04-05T06:08:20;13.17;;;9.90;;
20671;SDS011;10495;50.922;4.760;2023-04-05T06:10:47;16.17;;;10.40;;
20671;SDS011;10495;50.922;4.760;2023-04-05T06:13:13;19.43;;;12.37;;
20671;SDS011;10495;50.922;4.760;2023-04-05T06:15:39;16.30;;;12.27;;
20671;SDS011;10495;50.922;4.760;2023-04-05T06:18:06;19.40;;;11.33;;
20671;SDS011;10495;50.922;4.760;2023-04-05T06:20:32;23.63;;;11.30;;
20671;SDS011;10495;50.922;4.760;2023-04-05T06:22:58;17.40;;;10.60;;
20671;SDS011;10495;50.922;4.760;2023-04-05T06:25:23;21.27;;;12.23;;
20671;SDS011;10495;50.922;4.760;2023-04-05T06:27:49;18.37;;;11.33;;
20671;SDS011;10495;50.922;4.760;2023-04-05T06:30:15;18.37;;;11.77;;
20671;SDS011;10495;50.922;4.760;2023-04-05T06:32:40;18.87;;;12.60;;
20671;SDS011;10495;50.922;4.760;2023-04-05T06:35:06;18.13;;;11.83;;
20671;SDS011;10495;50.922;4.760;2023-04-05T06:37:32;20.90;;;12.37;;
20671;SDS011;10495;50.922;4.760;2023-04-05T06:39:57;18.93;;;12.43;;
20671;SDS011;10495;50.922;4.760;2023-04-05T06:42:23;18.97;;;12.57;;
20671;SDS011;10495;50.922;4.760;2023-04-05T06:44:49;20.20;;;13.07;;
20671;SDS011;10495;50.922;4.760;2023-04-05T06:47:15;18.57;;;13.03;;
20671;SDS011;10495;50.922;4.760;2023-04-05T06:49:40;16.30;;;12.37;;
20671;SDS011;10495;50.922;4.760;2023-04-05T06:52:06;21.40;;;13.13;;
20671;SDS011;10495;50.922;4.760;2023-04-05T06:54:32;18.33;;;13.27;;
20671;SDS011;10495;50.922;4.760;2023-04-05T06:56:59;17.27;;;12.03;;
20671;SDS011;10495;50.922;4.760;2023-04-05T06:59:26;19.73;;;11.53;;
20671;SDS011;10495;50.922;4.760;2023-04-05T07:01:53;18.63;;;11.93;;
20671;SDS011;10495;50.922;4.760;2023-04-05T07:04:18;21.47;;;13.47;;
20671;SDS011;10495;50.922;4.760;2023-04-05T07:06:44;21.30;;;13.33;;
20671;SDS011;10495;50.922;4.760;2023-04-05T07:09:10;18.10;;;11.60;;
20671;SDS011;10495;50.922;4.760;2023-04-05T07:11:35;14.83;;;10.83;;
20671;SDS011;10495;50.922;4.760;2023-04-05T07:14:02;18.90;;;10.97;;
20671;SDS011;10495;50.922;4.760;2023-04-05T07:16:28;13.20;;;10.20;;
20671;SDS011;10495;50.922;4.760;2023-04-05T07:18:54;15.77;;;10.87;;
20671;SDS011;10495;50.922;4.760;2023-04-05T07:21:21;13.23;;;10.20;;
20671;SDS011;10495;50.922;4.760;2023-04-05T07:23:47;18.17;;;10.97;;
20671;SDS011;10495;50.922;4.760;2023-04-05T07:26:12;17.97;;;11.57;;
20671;SDS011;10495;50.922;4.760;2023-04-05T07:28:38;18.60;;;11.60;;
20671;SDS011;10495;50.922;4.760;2023-04-05T07:31:04;15.67;;;11.20;;
20671;SDS011;10495;50.922;4.760;2023-04-05T07:33:31;16.63;;;11.30;;
20671;SDS011;10495;50.922;4.760;2023-04-05T07:35:58;15.87;;;11.27;;
20671;SDS011;10495;50.922;4.760;2023-04-05T07:38:27;14.43;;;10.30;;
20671;SDS011;10495;50.922;4.760;2023-04-05T07:40:54;13.30;;;11.00;;
20671;SDS011;10495;50.922;4.760;2023-04-05T07:43:20;15.73;;;10.43;;
20671;SDS011;10495;50.922;4.760;2023-04-05T07:45:46;16.03;;;10.43;;
20671;SDS011;10495;50.922;4.760;2023-04-05T07:48:11;17.53;;;10.67;;
20671;SDS011;10495;50.922;4.760;2023-04-05T07:50:37;15.13;;;10.90;;
20671;SDS011;10495;50.922;4.760;2023-04-05T07:53:04;16.27;;;10.70;;
20671;SDS011;10495;50.922;4.760;2023-04-05T07:55:32;16.17;;;11.37;;
20671;SDS011;10495;50.922;4.760;2023-04-05T07:57:57;13.80;;;10.47;;
20671;SDS011;10495;50.922;4.760;2023-04-05T08:00:23;17.17;;;11.50;;
20671;SDS011;10495;50.922;4.760;2023-04-05T08:02:49;15.53;;;10.97;;
20671;SDS011;10495;50.922;4.760;2023-04-05T08:05:17;14.57;;;10.80;;
20671;SDS011;10495;50.922;4.760;2023-04-05T08:07:44;18.30;;;11.43;;
20671;SDS011;10495;50.922;4.760;2023-04-05T08:10:10;14.70;;;10.40;;
20671;SDS011;10495;50.922;4.760;2023-04-05T08:12:36;17.63;;;11.07;;
20671;SDS011;10495;50.922;4.760;2023-04-05T08:15:02;21.07;;;10.80;;
20671;SDS011;10495;50.922;4.760;2023-04-05T08:17:27;14.30;;;10.70;;
20671;SDS011;10495;50.922;4.760;2023-04-05T08:19:54;12.13;;;9.33;;
20671;SDS011;10495;50.922;4.760;2023-04-05T08:22:20;13.77;;;9.90;;
20671;SDS011;10495;50.922;4.760;2023-04-05T08:24:45;12.23;;;8.90;;
20671;SDS011;10495;50.922;4.760;2023-04-05T08:27:11;15.07;;;8.80;;
20671;SDS011;10495;50.922;4.760;2023-04-05T08:29:37;10.50;;;8.83;;
20671;SDS011;10495;50.922;4.760;2023-04-05T08:32:02;13.23;;;8.23;;
20671;SDS011;10495;50.922;4.760;2023-04-05T08:34:28;12.07;;;8.13;;
20671;SDS011;10495;50.922;4.760;2023-04-05T08:36:57;15.37;;;7.83;;
20671;SDS011;10495;50.922;4.760;2023-04-05T08:39:24;11.77;;;6.57;;
20671;SDS011;10495;50.922;4.760;2023-04-05T08:41:56;9.47;;;6.47;;
20671;SDS011;10495;50.922;4.760;2023-04-05T08:44:43;9.43;;;7.10;;
20671;SDS011;10495;50.922;4.760;2023-04-05T08:47:12;9.03;;;7.03;;
20671;SDS011;10495;50.922;4.760;2023-04-05T08:49:46;8.60;;;6.43;;
20671;SDS011;10495;50.922;4.760;2023-04-05T08:52:12;8.53;;;6.37;;
20671;SDS011;10495;50.922;4.760;2023-04-05T08:54:38;11.60;;;6.50;;
20671;SDS011;10495;50.922;4.760;2023-04-05T08:57:04;9.47;;;6.57;;
20671;SDS011;10495;50.922;4.760;2023-04-05T08:59:32;11.17;;;6.83;;
20671;SDS011;10495;50.922;4.760;2023-04-05T09:02:03;9.33;;;5.63;;
20671;SDS011;10495;50.922;4.760;2023-04-05T09:04:42;10.00;;;7.00;;
20671;SDS011;10495;50.922;4.760;2023-04-05T09:07:08;9.50;;;6.60;;
20671;SDS011;10495;50.922;4.760;2023-04-05T09:09:37;10.43;;;7.03;;
20671;SDS011;10495;50.922;4.760;2023-04-05T09:12:06;11.53;;;6.53;;
20671;SDS011;10495;50.922;4.760;2023-04-05T09:14:33;8.10;;;5.70;;
20671;SDS011;10495;50.922;4.760;2023-04-05T09:17:02;7.87;;;6.10;;
20671;SDS011;10495;50.922;4.760;2023-04-05T09:19:28;11.63;;;6.60;;
20671;SDS011;10495;50.922;4.760;2023-04-05T09:22:01;9.33;;;6.50;;
20671;SDS011;10495;50.922;4.760;2023-04-05T09:24:35;8.43;;;6.20;;
20671;SDS011;10495;50.922;4.760;2023-04-05T09:29:38;5.57;;;4.73;;
20671;SDS011;10495;50.922;4.760;2023-04-05T09:32:06;10.13;;;6.00;;
20671;SDS011;10495;50.922;4.760;2023-04-05T09:34:33;8.37;;;6.60;;
20671;SDS011;10495;50.922;4.760;2023-04-05T09:37:01;9.67;;;7.03;;
20671;SDS011;10495;50.922;4.760;2023-04-05T09:39:31;11.93;;;7.87;;
20671;SDS011;10495;50.922;4.760;2023-04-05T09:42:03;11.30;;;6.93;;
20671;SDS011;10495;50.922;4.760;2023-04-05T09:47:37;10.27;;;7.13;;
20671;SDS011;10495;50.922;4.760;2023-04-05T09:50:36;12.33;;;6.83;;
20671;SDS011;10495;50.922;4.760;2023-04-05T09:53:17;8.67;;;6.97;;
20671;SDS011;10495;50.922;4.760;2023-04-05T09:55:59;9.47;;;5.80;;
20671;SDS011;10495;50.922;4.760;2023-04-05T09:59:14;11.27;;;6.90;;
20671;SDS011;10495;50.922;4.760;2023-04-05T10:02:34;11.47;;;7.30;;
20671;SDS011;10495;50.922;4.760;2023-04-05T10:05:16;8.60;;;6.67;;
20671;SDS011;10495;50.922;4.760;2023-04-05T10:07:42;11.77;;;7.43;;
20671;SDS011;10495;50.922;4.760;2023-04-05T10:10:09;10.97;;;7.50;;
20671;SDS011;10495;50.922;4.760;2023-04-05T10:12:40;13.07;;;8.00;;
20671;SDS011;10495;50.922;4.760;2023-04-05T10:15:09;10.20;;;7.13;;
20671;SDS011;10495;50.922;4.760;2023-04-05T10:17:38;11.03;;;7.23;;
20671;SDS011;10495;50.922;4.760;2023-04-05T10:20:20;11.53;;;8.17;;
20671;SDS011;10495;50.922;4.760;2023-04-05T10:22:49;10.57;;;7.60;;
20671;SDS011;10495;50.922;4.760;2023-04-05T10:28:25;9.10;;;7.20;;
20671;SDS011;10495;50.922;4.760;2023-04-05T10:31:42;13.97;;;7.43;;
20671;SDS011;10495;50.922;4.760;2023-04-05T10:34:03;10.87;;;8.03;;
20671;SDS011;10495;50.922;4.760;2023-04-05T10:41:43;11.77;;;7.67;;
20671;SDS011;10495;50.922;4.760;2023-04-05T10:44:13;12.03;;;7.60;;
20671;SDS011;10495;50.922;4.760;2023-04-05T10:46:39;11.67;;;7.97;;
20671;SDS011;10495;50.922;4.760;2023-04-05T10:51:33;11.77;;;7.53;;
20671;SDS011;10495;50.922;4.760;2023-04-05T10:54:00;13.03;;;7.40;;
20671;SDS011;10495;50.922;4.760;2023-04-05T10:56:27;11.37;;;7.20;;
20671;SDS011;10495;50.922;4.760;2023-04-05T10:58:53;10.97;;;7.47;;
20671;SDS011;10495;50.922;4.760;2023-04-05T11:01:20;14.33;;;7.10;;
20671;SDS011;10495;50.922;4.760;2023-04-05T11:03:47;9.20;;;7.23;;
20671;SDS011;10495;50.922;4.760;2023-04-05T11:08:53;10.77;;;7.43;;
20671;SDS011;10495;50.922;4.760;2023-04-05T11:11:22;10.47;;;7.30;;
20671;SDS011;10495;50.922;4.760;2023-04-05T11:13:52;15.93;;;8.00;;
20671;SDS011;10495;50.922;4.760;2023-04-05T11:16:22;9.37;;;6.80;;
20671;SDS011;10495;50.922;4.760;2023-04-05T11:19:02;10.53;;;7.20;;
20671;SDS011;10495;50.922;4.760;2023-04-05T11:21:27;10.33;;;7.23;;
20671;SDS011;10495;50.922;4.760;2023-04-05T11:23:59;10.90;;;7.73;;
20671;SDS011;10495;50.922;4.760;2023-04-05T11:26:32;11.17;;;7.37;;
20671;SDS011;10495;50.922;4.760;2023-04-05T11:29:03;10.87;;;7.37;;
20671;SDS011;10495;50.922;4.760;2023-04-05T11:31:29;10.83;;;7.53;;
20671;SDS011;10495;50.922;4.760;2023-04-05T11:33:56;13.10;;;6.77;;
20671;SDS011;10495;50.922;4.760;2023-04-05T11:36:31;14.97;;;8.07;;
20671;SDS011;10495;50.922;4.760;2023-04-05T11:41:58;10.63;;;7.63;;
20671;SDS011;10495;50.922;4.760;2023-04-05T11:44:25;12.77;;;7.30;;
20671;SDS011;10495;50.922;4.760;2023-04-05T11:46:52;12.23;;;7.40;;
20671;SDS011;10495;50.922;4.760;2023-04-05T11:49:21;12.00;;;7.90;;
20671;SDS011;10495;50.922;4.760;2023-04-05T11:51:51;12.03;;;7.40;;
20671;SDS011;10495;50.922;4.760;2023-04-05T11:54:30;10.60;;;7.73;;
20671;SDS011;10495;50.922;4.760;2023-04-05T11:56:56;14.20;;;8.43;;
20671;SDS011;10495;50.922;4.760;2023-04-05T11:59:31;11.57;;;7.90;;
20671;SDS011;10495;50.922;4.760;2023-04-05T12:02:02;12.40;;;8.13;;
20671;SDS011;10495;50.922;4.760;2023-04-05T12:04:36;11.90;;;7.90;;
20671;SDS011;10495;50.922;4.760;2023-04-05T12:07:08;11.90;;;8.00;;
20671;SDS011;10495;50.922;4.760;2023-04-05T12:09:57;12.57;;;8.07;;
20671;SDS011;10495;50.922;4.760;2023-04-05T12:12:34;10.77;;;7.40;;
20671;SDS011;10495;50.922;4.760;2023-04-05T12:15:02;12.67;;;8.33;;
20671;SDS011;10495;50.922;4.760;2023-04-05T12:17:39;11.17;;;8.17;;
20671;SDS011;10495;50.922;4.760;2023-04-05T12:20:09;11.47;;;7.47;;
20671;SDS011;10495;50.922;4.760;2023-04-05T12:22:41;10.43;;;7.40;;
20671;SDS011;10495;50.922;4.760;2023-04-05T12:25:08;12.83;;;7.70;;
20671;SDS011;10495;50.922;4.760;2023-04-05T12:27:34;13.20;;;7.87;;
20671;SDS011;10495;50.922;4.760;2023-04-05T12:30:07;15.13;;;7.13;;
20671;SDS011;10495;50.922;4.760;2023-04-05T12:32:54;11.33;;;7.53;;
20671;SDS011;10495;50.922;4.760;2023-04-05T12:35:21;10.57;;;7.20;;
20671;SDS011;10495;50.922;4.760;2023-04-05T12:37:59;12.10;;;8.13;;
20671;SDS011;10495;50.922;4.760;2023-04-05T12:40:26;11.40;;;7.57;;
20671;SDS011;10495;50.922;4.760;2023-04-05T12:42:59;10.33;;;7.63;;
20671;SDS011;10495;50.922;4.760;2023-04-05T12:45:27;11.13;;;7.90;;
20671;SDS011;10495;50.922;4.760;2023-04-05T12:47:56;10.67;;;7.37;;
20671;SDS011;10495;50.922;4.760;2023-04-05T12:50:24;11.90;;;7.47;;
20671;SDS011;10495;50.922;4.760;2023-04-05T12:52:55;11.80;;;7.30;;
20671;SDS011;10495;50.922;4.760;2023-04-05T12:55:23;10.80;;;7.97;;
20671;SDS011;10495;50.922;4.760;2023-04-05T12:57:50;15.17;;;8.20;;
20671;SDS011;10495;50.922;4.760;2023-04-05T13:00:18;13.57;;;8.20;;
20671;SDS011;10495;50.922;4.760;2023-04-05T13:02:48;10.63;;;7.77;;
20671;SDS011;10495;50.922;4.760;2023-04-05T13:05:17;12.30;;;7.73;;
20671;SDS011;10495;50.922;4.760;2023-04-05T13:07:46;9.97;;;7.43;;
20671;SDS011;10495;50.922;4.760;2023-04-05T13:10:12;9.83;;;7.13;;
20671;SDS011;10495;50.922;4.760;2023-04-05T13:12:38;10.60;;;7.90;;
20671;SDS011;10495;50.922;4.760;2023-04-05T13:15:03;14.30;;;8.17;;
20671;SDS011;10495;50.922;4.760;2023-04-05T13:17:30;14.67;;;8.53;;
20671;SDS011;10495;50.922;4.760;2023-04-05T13:19:55;12.37;;;7.77;;
20671;SDS011;10495;50.922;4.760;2023-04-05T13:22:21;11.87;;;7.70;;
20671;SDS011;10495;50.922;4.760;2023-04-05T13:24:46;13.20;;;8.17;;
20671;SDS011;10495;50.922;4.760;2023-04-05T13:27:12;10.10;;;7.43;;
20671;SDS011;10495;50.922;4.760;2023-04-05T13:29:38;12.57;;;7.33;;
20671;SDS011;10495;50.922;4.760;2023-04-05T13:32:03;12.47;;;8.47;;
20671;SDS011;10495;50.922;4.760;2023-04-05T13:34:29;11.23;;;8.47;;
20671;SDS011;10495;50.922;4.760;2023-04-05T13:36:55;11.73;;;8.67;;
20671;SDS011;10495;50.922;4.760;2023-04-05T13:39:21;11.87;;;8.37;;
20671;SDS011;10495;50.922;4.760;2023-04-05T13:41:46;14.43;;;8.83;;
20671;SDS011;10495;50.922;4.760;2023-04-05T13:44:12;13.50;;;8.43;;
20671;SDS011;10495;50.922;4.760;2023-04-05T13:46:38;14.43;;;7.93;;
20671;SDS011;10495;50.922;4.760;2023-04-05T13:49:04;13.93;;;8.80;;
20671;SDS011;10495;50.922;4.760;2023-04-05T13:51:29;13.30;;;8.70;;
20671;SDS011;10495;50.922;4.760;2023-04-05T13:53:58;13.83;;;8.73;;
20671;SDS011;10495;50.922;4.760;2023-04-05T13:56:23;13.73;;;8.50;;
20671;SDS011;10495;50.922;4.760;2023-04-05T13:58:49;13.03;;;8.00;;
20671;SDS011;10495;50.922;4.760;2023-04-05T14:01:15;13.33;;;7.87;;
20671;SDS011;10495;50.922;4.760;2023-04-05T14:03:41;11.00;;;7.60;;
20671;SDS011;10495;50.922;4.760;2023-04-05T14:06:06;12.50;;;8.10;;
20671;SDS011;10495;50.922;4.760;2023-04-05T14:08:32;10.53;;;7.97;;
20671;SDS011;10495;50.922;4.760;2023-04-05T14:10:57;11.10;;;8.33;;
20671;SDS011;10495;50.922;4.760;2023-04-05T14:13:23;13.20;;;8.10;;
20671;SDS011;10495;50.922;4.760;2023-04-05T14:15:49;12.03;;;7.93;;
20671;SDS011;10495;50.922;4.760;2023-04-05T14:18:16;13.73;;;8.00;;
20671;SDS011;10495;50.922;4.760;2023-04-05T14:20:42;10.47;;;7.20;;
20671;SDS011;10495;50.922;4.760;2023-04-05T14:23:07;13.57;;;7.77;;
20671;SDS011;10495;50.922;4.760;2023-04-05T14:25:33;11.00;;;7.57;;
20671;SDS011;10495;50.922;4.760;2023-04-05T14:27:58;17.27;;;7.87;;
20671;SDS011;10495;50.922;4.760;2023-04-05T14:30:24;10.53;;;8.03;;
20671;SDS011;10495;50.922;4.760;2023-04-05T14:32:50;13.00;;;7.53;;
20671;SDS011;10495;50.922;4.760;2023-04-05T14:35:15;9.57;;;7.60;;
20671;SDS011;10495;50.922;4.760;2023-04-05T14:37:41;12.87;;;8.47;;
20671;SDS011;10495;50.922;4.760;2023-04-05T14:40:07;13.13;;;7.80;;
20671;SDS011;10495;50.922;4.760;2023-04-05T14:42:33;11.20;;;7.50;;
20671;SDS011;10495;50.922;4.760;2023-04-05T14:44:58;11.63;;;7.20;;
20671;SDS011;10495;50.922;4.760;2023-04-05T14:47:24;12.50;;;7.10;;
20671;SDS011;10495;50.922;4.760;2023-04-05T14:49:50;9.83;;;6.70;;
20671;SDS011;10495;50.922;4.760;2023-04-05T14:52:15;10.43;;;6.90;;
20671;SDS011;10495;50.922;4.760;2023-04-05T14:54:41;9.63;;;7.20;;
20671;SDS011;10495;50.922;4.760;2023-04-05T14:57:06;13.60;;;7.27;;
20671;SDS011;10495;50.922;4.760;2023-04-05T14:59:32;10.83;;;6.87;;
20671;SDS011;10495;50.922;4.760;2023-04-05T15:01:58;9.80;;;6.90;;
20671;SDS011;10495;50.922;4.760;2023-04-05T15:04:23;10.40;;;7.43;;
20671;SDS011;10495;50.922;4.760;2023-04-05T15:06:49;10.57;;;6.90;;
20671;SDS011;10495;50.922;4.760;2023-04-05T15:09:15;11.50;;;6.97;;
20671;SDS011;10495;50.922;4.760;2023-04-05T15:11:41;10.87;;;7.37;;
20671;SDS011;10495;50.922;4.760;2023-04-05T15:14:07;11.27;;;7.50;;
20671;SDS011;10495;50.922;4.760;2023-04-05T15:16:32;15.33;;;6.53;;
20671;SDS011;10495;50.922;4.760;2023-04-05T15:18:58;10.47;;;6.60;;